Muddy Gap, Wyoming
Current Conditions -  °F | °C
As of 7:53 PM on Thursday 20 Nov 2014 (Local Time) from KRWL Reporting Station
Overcast Overcast  
Wind Chill: 26°   Ceiling: 10000
Heat Index: 35°   Visibility: 10mi
Dew Point: 23°   Wind: 14mph
Humidity: 61%   Direction: 240°WSW
Pressure: 30.02"   Gusts: NA
Location:  41.7532°N, 107.372°W
Report Text: KRWL 210253Z AUTO 24012KT 10SM OVC100 02/M05 A3002 RMK AO2 SLP166 T00171050 51004
Loading
Personal Weather Stations






























Interactive Weather Map New forecast layout! Learn more

10-Day Weather Forecast

Advertisements
Track Severe Weather on mobile